Brisbane International Airport
YBBN : rendu visible

Aérodrome :











RETROUVEZ-NOUS SUR...

 
LOGIN :

S'inscrire | Disclaimer

   EN    FR    IT 

 









Légende :    VFR   VFR Marginal   IFR   IFR Intensif   IFR Très Intensif
Visi : 
Plafond : 
>= 8 km
>= 3000ft
5 à 8 km
1000 à 3000 ft
1500m à 5 km
500 à 1000 ft
800 à 1500m
200 à 500 ft
< 800m
< 200 ft
Symboles :   Orages  Brouillard  Fortes neiges  Fortes précipitations  Vent > 20 kt






- Altitude de l'aérodrome : 13 ft
- Code IATA : BNE


YBBN - Brisbane International

DERNIER METAR :
  • 091800Z 20006KT 9999 FEW035 BKN048 BKN099 20/19 Q1020 INTER 1800/2100 4000 SHRA BKN014

METARs EXPIRÉS :
  • 091730Z 20006KT 9999 FEW030 SCT040 BKN048 20/19 Q1020 INTER 1730/2030 4000 SHRA BKN014
  • 091700Z 15005KT 9999 FEW007 SCT030 BKN040 20/19 Q1020 INTER 1700/2000 4000 SHRA BKN014
  • 091630Z 19005KT 9999 -SHRA FEW009 SCT018 BKN033 20/19 Q1021 INTER 1630/1930 4000 SHRA BKN014
  • 091600Z 19005KT 9999 -SHRA FEW018 SCT033 BKN041 20/19 Q1021 INTER 1600/1900 4000 SHRA BKN014
  • 091530Z 21005KT 9999 VCSH FEW025 SCT032 BKN045 20/19 Q1021

TAF TAF YBBN
Valide du 09 à 18h jusqu'au 11 à 00h UTC


091725Z 0918/1100 20006KT 9999 -SHRA SCT025 BKN045
FM092300 04010KT 9999 NSW SCT030
FM101200 33008KT 9999 FEW025 INTER 0918/1000 4000 SHRA BKN014



MET'MAP, la Météo Aéronautique d'un coup d'oeil ! - Copyright ORBIFLY Décembre 2007 - Disclaimer

ORBIFLY MET'MAP TEAM :

Programmation & Développement : Alexandra Zaïnal
Sur une idée originale de : Baudouin d'Aumeries
Assistance à la programmation : Marc-Olivier Méhu
Soutien technique & logistique : Manuel Goepfert

Contact : metmap@orbifly.com




SOURCES & CREDITS :

   NOAA       Earth
Advisory